sensor_id;sensor_type;location;lat;lon;timestamp;pressure;altitude;pressure_sealevel;temperature;humidity
18784;BME280;9520;50.954;6.968;2023-02-13T00:00:14;103135.31;;;15.93;46.60
18784;BME280;9520;50.954;6.968;2023-02-13T00:00:37;103138.84;;;15.95;46.59
18784;BME280;9520;50.954;6.968;2023-02-13T00:00:59;103126.44;;;15.91;46.48
18784;BME280;9520;50.954;6.968;2023-02-13T00:01:22;103135.31;;;15.95;46.55
18784;BME280;9520;50.954;6.968;2023-02-13T00:01:43;103136.19;;;16.00;46.38
18784;BME280;9520;50.954;6.968;2023-02-13T00:02:06;103138.00;;;16.01;46.33
18784;BME280;9520;50.954;6.968;2023-02-13T00:02:28;103131.75;;;15.94;46.63
18784;BME280;9520;50.954;6.968;2023-02-13T00:02:50;103133.53;;;15.91;46.51
18784;BME280;9520;50.954;6.968;2023-02-13T00:03:12;103136.19;;;16.00;46.59
18784;BME280;9520;50.954;6.968;2023-02-13T00:03:34;103136.19;;;16.00;46.40
18784;BME280;9520;50.954;6.968;2023-02-13T00:03:58;103135.34;;;16.03;46.27
18784;BME280;9520;50.954;6.968;2023-02-13T00:04:20;103129.09;;;16.04;46.32
18784;BME280;9520;50.954;6.968;2023-02-13T00:04:42;103130.00;;;16.06;46.42
18784;BME280;9520;50.954;6.968;2023-02-13T00:05:04;103127.31;;;16.04;46.36
18784;BME280;9520;50.954;6.968;2023-02-13T00:05:25;103134.41;;;16.04;46.34
18784;BME280;9520;50.954;6.968;2023-02-13T00:05:47;103137.06;;;15.99;46.24
18784;BME280;9520;50.954;6.968;2023-02-13T00:06:10;103137.09;;;16.01;46.22
18784;BME280;9520;50.954;6.968;2023-02-13T00:06:32;103131.75;;;16.04;46.33
18784;BME280;9520;50.954;6.968;2023-02-13T00:06:53;103127.31;;;16.04;46.28
18784;BME280;9520;50.954;6.968;2023-02-13T00:07:15;103130.00;;;16.04;46.09
18784;BME280;9520;50.954;6.968;2023-02-13T00:07:38;103131.75;;;16.04;46.07
18784;BME280;9520;50.954;6.968;2023-02-13T00:08:01;103129.09;;;15.99;46.24
18784;BME280;9520;50.954;6.968;2023-02-13T00:08:23;103131.75;;;15.94;46.32
18784;BME280;9520;50.954;6.968;2023-02-13T00:08:46;103130.84;;;15.94;46.64
18784;BME280;9520;50.954;6.968;2023-02-13T00:09:10;103129.09;;;15.87;46.65
18784;BME280;9520;50.954;6.968;2023-02-13T00:09:32;103130.88;;;15.92;46.64
18784;BME280;9520;50.954;6.968;2023-02-13T00:09:54;103125.53;;;15.94;46.41
18784;BME280;9520;50.954;6.968;2023-02-13T00:10:16;103116.66;;;15.86;46.48
18784;BME280;9520;50.954;6.968;2023-02-13T00:10:38;103130.00;;;15.92;46.45
18784;BME280;9520;50.954;6.968;2023-02-13T00:11:00;103121.97;;;15.89;46.55
18784;BME280;9520;50.954;6.968;2023-02-13T00:11:22;103127.31;;;15.90;46.66
18784;BME280;9520;50.954;6.968;2023-02-13T00:11:44;103112.22;;;15.82;46.48
18784;BME280;9520;50.954;6.968;2023-02-13T00:12:06;103104.22;;;15.82;46.37
18784;BME280;9520;50.954;6.968;2023-02-13T00:12:28;103130.88;;;16.00;46.23
18784;BME280;9520;50.954;6.968;2023-02-13T00:12:51;103122.00;;;15.96;46.47
18784;BME280;9520;50.954;6.968;2023-02-13T00:13:13;103132.66;;;15.92;46.61
18784;BME280;9520;50.954;6.968;2023-02-13T00:13:34;103136.19;;;15.95;46.64
18784;BME280;9520;50.954;6.968;2023-02-13T00:13:57;103128.22;;;15.95;46.49
18784;BME280;9520;50.954;6.968;2023-02-13T00:14:19;103130.00;;;15.96;46.46
18784;BME280;9520;50.954;6.968;2023-02-13T00:14:40;103132.63;;;15.95;46.61
18784;BME280;9520;50.954;6.968;2023-02-13T00:15:02;103129.09;;;15.93;46.46
18784;BME280;9520;50.954;6.968;2023-02-13T00:15:25;103134.41;;;15.94;46.60
18784;BME280;9520;50.954;6.968;2023-02-13T00:15:54;103125.56;;;15.97;46.59
18784;BME280;9520;50.954;6.968;2023-02-13T00:16:16;103129.97;;;15.95;46.61
18784;BME280;9520;50.954;6.968;2023-02-13T00:16:38;103125.56;;;15.97;46.55
18784;BME280;9520;50.954;6.968;2023-02-13T00:17:01;103128.19;;;15.94;46.69
18784;BME280;9520;50.954;6.968;2023-02-13T00:17:22;103128.19;;;15.94;46.62
18784;BME280;9520;50.954;6.968;2023-02-13T00:17:44;103128.22;;;15.97;46.66
18784;BME280;9520;50.954;6.968;2023-02-13T00:18:06;103122.00;;;15.95;46.54
18784;BME280;9520;50.954;6.968;2023-02-13T00:18:28;103130.88;;;15.88;46.51
18784;BME280;9520;50.954;6.968;2023-02-13T00:18:51;103132.63;;;15.84;46.75
18784;BME280;9520;50.954;6.968;2023-02-13T00:19:13;103130.88;;;15.91;46.70
18784;BME280;9520;50.954;6.968;2023-02-13T00:19:35;103125.56;;;15.92;46.50
18784;BME280;9520;50.954;6.968;2023-02-13T00:19:56;103131.75;;;15.90;46.47
18784;BME280;9520;50.954;6.968;2023-02-13T00:20:19;103122.91;;;15.92;46.49
18784;BME280;9520;50.954;6.968;2023-02-13T00:20:40;103120.22;;;15.88;46.50
18784;BME280;9520;50.954;6.968;2023-02-13T00:21:04;103128.19;;;15.82;46.78
18784;BME280;9520;50.954;6.968;2023-02-13T00:21:26;103123.75;;;15.81;46.67
18784;BME280;9520;50.954;6.968;2023-02-13T00:21:48;103129.06;;;15.78;46.80
18784;BME280;9520;50.954;6.968;2023-02-13T00:22:10;103126.38;;;15.76;46.87
18784;BME280;9520;50.954;6.968;2023-02-13T00:22:34;103132.56;;;15.66;46.96
18784;BME280;9520;50.954;6.968;2023-02-13T00:22:57;103118.34;;;15.60;47.13
18784;BME280;9520;50.954;6.968;2023-02-13T00:23:19;103125.44;;;15.59;47.18
18784;BME280;9520;50.954;6.968;2023-02-13T00:23:41;103127.22;;;15.62;47.37
18784;BME280;9520;50.954;6.968;2023-02-13T00:24:05;103119.25;;;15.57;47.43
18784;BME280;9520;50.954;6.968;2023-02-13T00:24:27;103112.13;;;15.56;47.49
18784;BME280;9520;50.954;6.968;2023-02-13T00:24:49;103123.69;;;15.63;47.32
18784;BME280;9520;50.954;6.968;2023-02-13T00:25:11;103121.03;;;15.66;47.47
18784;BME280;9520;50.954;6.968;2023-02-13T00:25:33;103113.06;;;15.63;47.38
18784;BME280;9520;50.954;6.968;2023-02-13T00:25:55;103120.16;;;15.71;47.32
18784;BME280;9520;50.954;6.968;2023-02-13T00:26:17;103126.41;;;15.73;47.12
18784;BME280;9520;50.954;6.968;2023-02-13T00:26:40;103123.72;;;15.69;47.02
18784;BME280;9520;50.954;6.968;2023-02-13T00:27:02;103118.41;;;15.72;47.15
18784;BME280;9520;50.954;6.968;2023-02-13T00:27:23;103126.38;;;15.70;47.20
18784;BME280;9520;50.954;6.968;2023-02-13T00:27:45;103121.00;;;15.57;47.46
18784;BME280;9520;50.954;6.968;2023-02-13T00:28:08;103125.44;;;15.54;47.31
18784;BME280;9520;50.954;6.968;2023-02-13T00:28:29;103121.91;;;15.57;47.35
18784;BME280;9520;50.954;6.968;2023-02-13T00:28:51;103112.97;;;15.50;47.34
18784;BME280;9520;50.954;6.968;2023-02-13T00:29:13;103115.63;;;15.43;47.42
18784;BME280;9520;50.954;6.968;2023-02-13T00:29:35;103118.28;;;15.46;47.46
18784;BME280;9520;50.954;6.968;2023-02-13T00:29:57;103118.25;;;15.44;47.51
18784;BME280;9520;50.954;6.968;2023-02-13T00:30:19;103115.59;;;15.44;47.60
18784;BME280;9520;50.954;6.968;2023-02-13T00:30:41;103112.06;;;15.45;47.72
18784;BME280;9520;50.954;6.968;2023-02-13T00:31:04;103112.03;;;15.38;47.83
18784;BME280;9520;50.954;6.968;2023-02-13T00:31:27;103113.75;;;15.30;47.81
18784;BME280;9520;50.954;6.968;2023-02-13T00:31:49;103111.13;;;15.36;47.74
18784;BME280;9520;50.954;6.968;2023-02-13T00:32:11;103119.13;;;15.40;47.80
18784;BME280;9520;50.954;6.968;2023-02-13T00:32:33;103110.28;;;15.41;47.78
18784;BME280;9520;50.954;6.968;2023-02-13T00:32:55;103112.03;;;15.41;47.60
18784;BME280;9520;50.954;6.968;2023-02-13T00:33:18;103116.50;;;15.43;47.58
18784;BME280;9520;50.954;6.968;2023-02-13T00:33:40;103112.94;;;15.44;47.71
18784;BME280;9520;50.954;6.968;2023-02-13T00:34:01;103108.50;;;15.39;47.65
18784;BME280;9520;50.954;6.968;2023-02-13T00:34:23;103112.97;;;15.49;47.71
18784;BME280;9520;50.954;6.968;2023-02-13T00:34:45;103113.91;;;15.52;47.57
18784;BME280;9520;50.954;6.968;2023-02-13T00:35:08;103117.41;;;15.47;47.57
18784;BME280;9520;50.954;6.968;2023-02-13T00:35:29;103106.69;;;15.32;47.90
18784;BME280;9520;50.954;6.968;2023-02-13T00:36:01;103115.59;;;15.38;47.79
18784;BME280;9520;50.954;6.968;2023-02-13T00:36:24;103110.25;;;15.40;47.70
18784;BME280;9520;50.954;6.968;2023-02-13T00:36:46;103114.72;;;15.42;47.63
18784;BME280;9520;50.954;6.968;2023-02-13T00:37:09;103100.47;;;15.34;47.61
18784;BME280;9520;50.954;6.968;2023-02-13T00:37:32;103113.84;;;15.46;47.63
18784;BME280;9520;50.954;6.968;2023-02-13T00:37:54;103112.97;;;15.49;47.49
18784;BME280;9520;50.954;6.968;2023-02-13T00:38:18;103112.13;;;15.51;47.48
18784;BME280;9520;50.954;6.968;2023-02-13T00:38:41;103111.25;;;15.52;47.42
18784;BME280;9520;50.954;6.968;2023-02-13T00:39:04;103106.81;;;15.56;47.50
18784;BME280;9520;50.954;6.968;2023-02-13T00:39:26;103092.59;;;15.51;47.45
18784;BME280;9520;50.954;6.968;2023-02-13T00:39:49;103111.25;;;15.52;47.48
18784;BME280;9520;50.954;6.968;2023-02-13T00:40:12;103107.72;;;15.58;47.25
18784;BME280;9520;50.954;6.968;2023-02-13T00:40:33;103113.03;;;15.64;47.50
18784;BME280;9520;50.954;6.968;2023-02-13T00:40:55;103105.03;;;15.55;47.38
18784;BME280;9520;50.954;6.968;2023-02-13T00:41:19;103114.81;;;15.61;47.25
18784;BME280;9520;50.954;6.968;2023-02-13T00:41:40;103111.25;;;15.65;47.23
18784;BME280;9520;50.954;6.968;2023-02-13T00:42:03;103108.63;;;15.66;47.16
18784;BME280;9520;50.954;6.968;2023-02-13T00:42:26;103108.63;;;15.66;47.20
18784;BME280;9520;50.954;6.968;2023-02-13T00:42:49;103111.28;;;15.69;47.14
18784;BME280;9520;50.954;6.968;2023-02-13T00:43:10;103114.78;;;15.59;47.14
18784;BME280;9520;50.954;6.968;2023-02-13T00:43:32;103107.72;;;15.57;47.15
18784;BME280;9520;50.954;6.968;2023-02-13T00:43:54;103107.72;;;15.57;47.28
18784;BME280;9520;50.954;6.968;2023-02-13T00:44:16;103121.91;;;15.60;47.08
18784;BME280;9520;50.954;6.968;2023-02-13T00:44:38;103105.03;;;15.60;47.05
18784;BME280;9520;50.954;6.968;2023-02-13T00:45:00;103111.25;;;15.60;47.08
18784;BME280;9520;50.954;6.968;2023-02-13T00:45:23;103112.13;;;15.51;47.26
18784;BME280;9520;50.954;6.968;2023-02-13T00:45:46;103101.47;;;15.51;47.39
18784;BME280;9520;50.954;6.968;2023-02-13T00:46:08;103108.53;;;15.49;47.33
18784;BME280;9520;50.954;6.968;2023-02-13T00:46:30;103103.19;;;15.45;47.38
18784;BME280;9520;50.954;6.968;2023-02-13T00:46:52;103105.84;;;15.49;47.34
18784;BME280;9520;50.954;6.968;2023-02-13T00:47:14;103100.53;;;15.46;47.30
18784;BME280;9520;50.954;6.968;2023-02-13T00:47:36;103107.66;;;15.50;47.46
18784;BME280;9520;50.954;6.968;2023-02-13T00:47:57;103106.75;;;15.50;47.46
18784;BME280;9520;50.954;6.968;2023-02-13T00:48:19;103114.78;;;15.56;47.27
18784;BME280;9520;50.954;6.968;2023-02-13T00:48:42;103104.16;;;15.59;47.13
18784;BME280;9520;50.954;6.968;2023-02-13T00:49:05;103101.53;;;15.62;47.14
18784;BME280;9520;50.954;6.968;2023-02-13T00:49:28;103103.28;;;15.65;47.26
18784;BME280;9520;50.954;6.968;2023-02-13T00:49:49;103105.09;;;15.67;46.90
18784;BME280;9520;50.954;6.968;2023-02-13T00:50:11;103111.25;;;15.65;46.95
18784;BME280;9520;50.954;6.968;2023-02-13T00:50:33;103111.28;;;15.62;47.07
18784;BME280;9520;50.954;6.968;2023-02-13T00:50:56;103105.97;;;15.66;47.11
18784;BME280;9520;50.954;6.968;2023-02-13T00:51:19;103105.06;;;15.64;47.02
18784;BME280;9520;50.954;6.968;2023-02-13T00:51:40;103099.72;;;15.57;47.02
18784;BME280;9520;50.954;6.968;2023-02-13T00:52:02;103101.50;;;15.59;47.12
18784;BME280;9520;50.954;6.968;2023-02-13T00:52:25;103103.25;;;15.51;47.10
18784;BME280;9520;50.954;6.968;2023-02-13T00:52:47;103100.53;;;15.49;47.35
18784;BME280;9520;50.954;6.968;2023-02-13T00:53:08;103106.72;;;15.39;47.43
18784;BME280;9520;50.954;6.968;2023-02-13T00:53:30;103107.63;;;15.41;47.29
18784;BME280;9520;50.954;6.968;2023-02-13T00:53:53;103096.13;;;15.44;47.40
18784;BME280;9520;50.954;6.968;2023-02-13T00:54:16;103069.47;;;15.32;47.37
18784;BME280;9520;50.954;6.968;2023-02-13T00:54:38;103100.47;;;15.30;47.69
18784;BME280;9520;50.954;6.968;2023-02-13T00:54:59;103096.94;;;15.29;47.69
18784;BME280;9520;50.954;6.968;2023-02-13T00:55:21;103098.75;;;15.42;47.68
18784;BME280;9520;50.954;6.968;2023-02-13T00:55:44;103097.00;;;15.47;47.44
18784;BME280;9520;50.954;6.968;2023-02-13T00:56:06;103097.06;;;15.55;47.20
18784;BME280;9520;50.954;6.968;2023-02-13T00:56:30;103091.75;;;15.57;47.34
18784;BME280;9520;50.954;6.968;2023-02-13T00:56:52;103097.09;;;15.58;47.40
18784;BME280;9520;50.954;6.968;2023-02-13T00:57:14;103097.09;;;15.63;47.13
18784;BME280;9520;50.954;6.968;2023-02-13T00:57:36;103093.56;;;15.64;46.96
18784;BME280;9520;50.954;6.968;2023-02-13T00:57:58;103097.09;;;15.66;47.12
18784;BME280;9520;50.954;6.968;2023-02-13T00:58:20;103092.56;;;15.42;47.25
18784;BME280;9520;50.954;6.968;2023-02-13T00:58:41;103094.34;;;15.47;47.25
18784;BME280;9520;50.954;6.968;2023-02-13T00:59:04;103095.31;;;15.54;47.26
18784;BME280;9520;50.954;6.968;2023-02-13T00:59:26;103097.09;;;15.58;47.14
18784;BME280;9520;50.954;6.968;2023-02-13T00:59:48;103092.66;;;15.59;47.03
18784;BME280;9520;50.954;6.968;2023-02-13T01:00:13;103099.75;;;15.63;46.94
18784;BME280;9520;50.954;6.968;2023-02-13T01:00:35;103096.22;;;15.64;46.86
18784;BME280;9520;50.954;6.968;2023-02-13T01:00:58;103096.22;;;15.67;46.79
18784;BME280;9520;50.954;6.968;2023-02-13T01:01:20;103097.97;;;15.69;46.82
18784;BME280;9520;50.954;6.968;2023-02-13T01:01:43;103092.69;;;15.72;46.68
18784;BME280;9520;50.954;6.968;2023-02-13T01:02:05;103088.25;;;15.73;46.62
18784;BME280;9520;50.954;6.968;2023-02-13T01:02:26;103088.25;;;15.73;46.82
18784;BME280;9520;50.954;6.968;2023-02-13T01:02:49;103092.69;;;15.75;46.83
18784;BME280;9520;50.954;6.968;2023-02-13T01:03:12;103088.25;;;15.73;46.73
18784;BME280;9520;50.954;6.968;2023-02-13T01:03:34;103090.88;;;15.64;46.89
18784;BME280;9520;50.954;6.968;2023-02-13T01:03:56;103093.53;;;15.70;46.67
18784;BME280;9520;50.954;6.968;2023-02-13T01:04:18;103090.91;;;15.68;46.74
18784;BME280;9520;50.954;6.968;2023-02-13T01:04:41;103095.31;;;15.63;46.68
18784;BME280;9520;50.954;6.968;2023-02-13T01:05:03;103089.03;;;15.50;46.86
18784;BME280;9520;50.954;6.968;2023-02-13T01:05:24;103092.63;;;15.55;46.82
18784;BME280;9520;50.954;6.968;2023-02-13T01:05:48;103095.28;;;15.55;46.88
18784;BME280;9520;50.954;6.968;2023-02-13T01:06:11;103090.84;;;15.53;47.06
18784;BME280;9520;50.954;6.968;2023-02-13T01:06:33;103089.03;;;15.50;47.05
18784;BME280;9520;50.954;6.968;2023-02-13T01:06:54;103085.53;;;15.53;47.14
18784;BME280;9520;50.954;6.968;2023-02-13T01:07:16;103084.66;;;15.54;46.86
18784;BME280;9520;50.954;6.968;2023-02-13T01:07:39;103088.19;;;15.61;46.97
18784;BME280;9520;50.954;6.968;2023-02-13T01:08:01;103089.09;;;15.57;46.94
18784;BME280;9520;50.954;6.968;2023-02-13T01:08:23;103089.00;;;15.46;47.03
18784;BME280;9520;50.954;6.968;2023-02-13T01:08:44;103089.00;;;15.41;47.05
18784;BME280;9520;50.954;6.968;2023-02-13T01:09:08;103090.81;;;15.44;47.14
18784;BME280;9520;50.954;6.968;2023-02-13T01:09:32;103081.88;;;15.34;47.21
18784;BME280;9520;50.954;6.968;2023-02-13T01:09:54;103097.81;;;15.31;47.37
18784;BME280;9520;50.954;6.968;2023-02-13T01:10:16;103088.06;;;15.35;47.43
18784;BME280;9520;50.954;6.968;2023-02-13T01:10:40;103095.19;;;15.37;47.40
18784;BME280;9520;50.954;6.968;2023-02-13T01:11:02;103088.97;;;15.34;47.36
18784;BME280;9520;50.954;6.968;2023-02-13T01:11:24;103090.69;;;15.26;47.48
18784;BME280;9520;50.954;6.968;2023-02-13T01:11:46;103089.84;;;15.31;47.45
18784;BME280;9520;50.954;6.968;2023-02-13T01:12:08;103091.59;;;15.31;47.51
18784;BME280;9520;50.954;6.968;2023-02-13T01:12:30;103092.50;;;15.31;47.44
18784;BME280;9520;50.954;6.968;2023-02-13T01:12:54;103087.19;;;15.31;47.33
18784;BME280;9520;50.954;6.968;2023-02-13T01:13:17;103092.50;;;15.28;47.52
18784;BME280;9520;50.954;6.968;2023-02-13T01:13:39;103092.53;;;15.36;47.51
18784;BME280;9520;50.954;6.968;2023-02-13T01:14:01;103090.75;;;15.38;47.42
18784;BME280;9520;50.954;6.968;2023-02-13T01:14:23;103089.91;;;15.43;47.29
18784;BME280;9520;50.954;6.968;2023-02-13T01:14:45;103089.09;;;15.53;47.11
18784;BME280;9520;50.954;6.968;2023-02-13T01:15:08;103097.06;;;15.53;47.11
18784;BME280;9520;50.954;6.968;2023-02-13T01:15:30;103088.13;;;15.45;47.09
18784;BME280;9520;50.954;6.968;2023-02-13T01:15:52;103095.28;;;15.55;47.16
18784;BME280;9520;50.954;6.968;2023-02-13T01:16:14;103089.97;;;15.54;47.02
18784;BME280;9520;50.954;6.968;2023-02-13T01:16:38;103089.09;;;15.61;47.04
18784;BME280;9520;50.954;6.968;2023-02-13T01:17:00;103098.84;;;15.65;46.90
18784;BME280;9520;50.954;6.968;2023-02-13T01:17:22;103097.09;;;15.66;46.81
18784;BME280;9520;50.954;6.968;2023-02-13T01:17:43;103092.66;;;15.62;46.75
18784;BME280;9520;50.954;6.968;2023-02-13T01:18:05;103097.09;;;15.67;46.87
18784;BME280;9520;50.954;6.968;2023-02-13T01:18:28;103084.69;;;15.68;46.70
18784;BME280;9520;50.954;6.968;2023-02-13T01:18:50;103090.88;;;15.67;46.93
18784;BME280;9520;50.954;6.968;2023-02-13T01:19:12;103094.44;;;15.70;46.81
18784;BME280;9520;50.954;6.968;2023-02-13T01:19:33;103084.66;;;15.62;46.52
18784;BME280;9520;50.954;6.968;2023-02-13T01:19:56;103094.41;;;15.61;46.79
18784;BME280;9520;50.954;6.968;2023-02-13T01:20:18;103090.00;;;15.63;46.92
18784;BME280;9520;50.954;6.968;2023-02-13T01:20:39;103092.63;;;15.57;47.00
18784;BME280;9520;50.954;6.968;2023-02-13T01:21:03;103090.00;;;15.62;46.80
18784;BME280;9520;50.954;6.968;2023-02-13T01:21:25;103088.22;;;15.64;46.65
18784;BME280;9520;50.954;6.968;2023-02-13T01:21:48;103092.66;;;15.66;46.69
18784;BME280;9520;50.954;6.968;2023-02-13T01:22:12;103089.09;;;15.64;46.75
18784;BME280;9520;50.954;6.968;2023-02-13T01:22:34;103089.09;;;15.64;46.76
18784;BME280;9520;50.954;6.968;2023-02-13T01:22:56;103080.19;;;15.54;46.89
18784;BME280;9520;50.954;6.968;2023-02-13T01:23:18;103088.22;;;15.58;46.92
18784;BME280;9520;50.954;6.968;2023-02-13T01:23:41;103084.66;;;15.52;46.84
18784;BME280;9520;50.954;6.968;2023-02-13T01:24:59;103083.72;;;15.47;46.92
18784;BME280;9520;50.954;6.968;2023-02-13T01:25:24;103095.28;;;15.55;46.86
18784;BME280;9520;50.954;6.968;2023-02-13T01:25:46;103085.53;;;15.59;46.82
18784;BME280;9520;50.954;6.968;2023-02-13T01:26:14;103089.09;;;15.60;46.98
18784;BME280;9520;50.954;6.968;2023-02-13T01:26:36;103093.56;;;15.64;46.67
18784;BME280;9520;50.954;6.968;2023-02-13T01:26:59;103083.78;;;15.61;46.77
18784;BME280;9520;50.954;6.968;2023-02-13T01:27:22;103090.88;;;15.58;46.69
18784;BME280;9520;50.954;6.968;2023-02-13T01:27:44;103093.41;;;15.33;47.27
18784;BME280;9520;50.954;6.968;2023-02-13T01:28:06;103086.31;;;15.35;47.42
18784;BME280;9520;50.954;6.968;2023-02-13T01:28:28;103085.47;;;15.42;47.19
18784;BME280;9520;50.954;6.968;2023-02-13T01:28:52;103086.38;;;15.47;46.99
18784;BME280;9520;50.954;6.968;2023-02-13T01:29:14;103089.94;;;15.51;47.10
18784;BME280;9520;50.954;6.968;2023-02-13T01:29:36;103093.50;;;15.53;46.95
18784;BME280;9520;50.954;6.968;2023-02-13T01:29:57;103081.03;;;15.50;47.07
18784;BME280;9520;50.954;6.968;2023-02-13T01:30:20;103096.16;;;15.56;46.91
18784;BME280;9520;50.954;6.968;2023-02-13T01:30:42;103094.38;;;15.49;47.06
18784;BME280;9520;50.954;6.968;2023-02-13T01:31:04;103081.94;;;15.48;46.89
18784;BME280;9520;50.954;6.968;2023-02-13T01:31:26;103094.38;;;15.55;47.08
18784;BME280;9520;50.954;6.968;2023-02-13T01:31:49;103092.63;;;15.57;46.95
18784;BME280;9520;50.954;6.968;2023-02-13T01:32:11;103088.09;;;15.39;47.28
18784;BME280;9520;50.954;6.968;2023-02-13T01:32:33;103094.31;;;15.38;47.36
18784;BME280;9520;50.954;6.968;2023-02-13T01:32:54;103089.91;;;15.48;47.12
18784;BME280;9520;50.954;6.968;2023-02-13T01:33:20;103090.84;;;15.54;47.01
18784;BME280;9520;50.954;6.968;2023-02-13T01:33:43;103082.00;;;15.54;46.97
18784;BME280;9520;50.954;6.968;2023-02-13T01:34:06;103089.09;;;15.61;46.92
18784;BME280;9520;50.954;6.968;2023-02-13T01:34:28;103097.06;;;15.60;46.81
18784;BME280;9520;50.954;6.968;2023-02-13T01:34:49;103084.56;;;15.39;47.08
18784;BME280;9520;50.954;6.968;2023-02-13T01:35:13;103089.91;;;15.43;47.18
18784;BME280;9520;50.954;6.968;2023-02-13T01:35:37;103089.00;;;15.46;47.24
18784;BME280;9520;50.954;6.968;2023-02-13T01:36:04;103098.75;;;15.45;47.11
18784;BME280;9520;50.954;6.968;2023-02-13T01:36:26;103091.69;;;15.49;47.16
18784;BME280;9520;50.954;6.968;2023-02-13T01:36:49;103089.03;;;15.50;47.04
18784;BME280;9520;50.954;6.968;2023-02-13T01:37:11;103088.13;;;15.50;47.10
18784;BME280;9520;50.954;6.968;2023-02-13T01:37:32;103091.69;;;15.50;47.11
18784;BME280;9520;50.954;6.968;2023-02-13T01:37:54;103092.63;;;15.55;47.08
18784;BME280;9520;50.954;6.968;2023-02-13T01:38:17;103083.69;;;15.50;47.09
18784;BME280;9520;50.954;6.968;2023-02-13T01:38:39;103086.38;;;15.50;47.07
18784;BME280;9520;50.954;6.968;2023-02-13T01:39:01;103081.94;;;15.43;47.12
18784;BME280;9520;50.954;6.968;2023-02-13T01:39:24;103089.84;;;15.31;47.41
18784;BME280;9520;50.954;6.968;2023-02-13T01:39:46;103090.66;;;15.17;47.86
18784;BME280;9520;50.954;6.968;2023-02-13T01:40:12;103070.28;;;15.17;47.64
18784;BME280;9520;50.954;6.968;2023-02-13T01:40:34;103092.47;;;15.25;47.59
18784;BME280;9520;50.954;6.968;2023-02-13T01:40:56;103095.13;;;15.25;47.61
18784;BME280;9520;50.954;6.968;2023-02-13T01:41:18;103087.09;;;15.11;47.84
18784;BME280;9520;50.954;6.968;2023-02-13T01:41:40;103083.56;;;15.12;47.81
18784;BME280;9520;50.954;6.968;2023-02-13T01:42:02;103084.50;;;15.22;47.89
18784;BME280;9520;50.954;6.968;2023-02-13T01:42:26;103084.50;;;15.25;47.72
18784;BME280;9520;50.954;6.968;2023-02-13T01:42:48;103081.00;;;15.29;47.74
18784;BME280;9520;50.954;6.968;2023-02-13T01:43:11;103082.78;;;15.33;47.58
18784;BME280;9520;50.954;6.968;2023-02-13T01:43:47;103081.00;;;15.32;47.35
18784;BME280;9520;50.954;6.968;2023-02-13T01:44:44;103080.13;;;15.39;47.28
18784;BME280;9520;50.954;6.968;2023-02-13T01:45:20;103079.28;;;15.48;47.29
18784;BME280;9520;50.954;6.968;2023-02-13T01:45:44;103068.59;;;15.40;47.08
18784;BME280;9520;50.954;6.968;2023-02-13T01:46:07;103075.78;;;15.53;47.09
18784;BME280;9520;50.954;6.968;2023-02-13T01:46:32;103078.34;;;15.35;47.31
18784;BME280;9520;50.954;6.968;2023-02-13T01:46:57;103080.13;;;15.38;47.25
18784;BME280;9520;50.954;6.968;2023-02-13T01:47:24;103074.84;;;15.44;47.28
18784;BME280;9520;50.954;6.968;2023-02-13T01:47:48;103081.06;;;15.49;47.14
18784;BME280;9520;50.954;6.968;2023-02-13T01:48:15;103080.16;;;15.48;47.04
18784;BME280;9520;50.954;6.968;2023-02-13T01:48:37;103078.38;;;15.50;47.22
18784;BME280;9520;50.954;6.968;2023-02-13T01:49:04;103073.94;;;15.46;47.13
18784;BME280;9520;50.954;6.968;2023-02-13T01:49:27;103077.47;;;15.36;47.26
18784;BME280;9520;50.954;6.968;2023-02-13T01:49:54;103078.34;;;15.40;47.35
18784;BME280;9520;50.954;6.968;2023-02-13T01:50:24;103081.91;;;15.37;47.51
18784;BME280;9520;50.954;6.968;2023-02-13T01:50:51;103076.56;;;15.31;47.39
18784;BME280;9520;50.954;6.968;2023-02-13T01:51:17;103080.94;;;15.20;47.62
18784;BME280;9520;50.954;6.968;2023-02-13T01:51:40;103070.28;;;15.14;47.92
18784;BME280;9520;50.954;6.968;2023-02-13T01:52:07;103082.75;;;15.27;47.86
18784;BME280;9520;50.954;6.968;2023-02-13T01:52:30;103080.88;;;15.11;47.91
18784;BME280;9520;50.954;6.968;2023-02-13T01:52:55;103086.22;;;15.16;47.79
18784;BME280;9520;50.954;6.968;2023-02-13T01:53:21;103079.13;;;15.16;47.81
18784;BME280;9520;50.954;6.968;2023-02-13T01:53:50;103072.88;;;15.02;48.10
18784;BME280;9520;50.954;6.968;2023-02-13T01:54:15;103081.75;;;15.05;48.08
18784;BME280;9520;50.954;6.968;2023-02-13T01:54:39;103075.56;;;15.08;48.14
18784;BME280;9520;50.954;6.968;2023-02-13T01:55:04;103077.34;;;15.12;48.10
18784;BME280;9520;50.954;6.968;2023-02-13T01:55:29;103080.94;;;15.20;48.08
18784;BME280;9520;50.954;6.968;2023-02-13T01:55:54;103070.25;;;15.08;48.03
18784;BME280;9520;50.954;6.968;2023-02-13T01:56:21;103072.94;;;15.14;48.02
18784;BME280;9520;50.954;6.968;2023-02-13T01:56:49;103080.09;;;15.24;47.88
18784;BME280;9520;50.954;6.968;2023-02-13T01:57:13;103073.88;;;15.28;47.85
18784;BME280;9520;50.954;6.968;2023-02-13T01:57:38;103084.50;;;15.27;47.96
18784;BME280;9520;50.954;6.968;2023-02-13T01:58:03;103079.19;;;15.27;47.79
18784;BME280;9520;50.954;6.968;2023-02-13T01:58:31;103088.06;;;15.30;47.69
18784;BME280;9520;50.954;6.968;2023-02-13T01:58:56;103089.84;;;15.28;47.55
18784;BME280;9520;50.954;6.968;2023-02-13T01:59:35;103081.84;;;15.19;47.75
18784;BME280;9520;50.954;6.968;2023-02-13T02:00:02;103081.84;;;15.24;47.59
18784;BME280;9520;50.954;6.968;2023-02-13T02:00:38;103081.00;;;15.29;47.65
18784;BME280;9520;50.954;6.968;2023-02-13T02:01:00;103088.09;;;15.39;47.33
18784;BME280;9520;50.954;6.968;2023-02-13T02:01:25;103084.50;;;15.27;47.61
18784;BME280;9520;50.954;6.968;2023-02-13T02:01:49;103062.28;;;15.12;47.60
18784;BME280;9520;50.954;6.968;2023-02-13T02:02:11;103080.94;;;15.20;47.69
18784;BME280;9520;50.954;6.968;2023-02-13T02:02:36;103083.63;;;15.26;47.72
18784;BME280;9520;50.954;6.968;2023-02-13T02:03:02;103075.69;;;15.29;47.57